createdAt,value
2019-06-01T00:02:07.400Z,15.58
2019-06-01T00:04:36.905Z,15.54
2019-06-01T00:07:06.269Z,15.48
2019-06-01T00:09:35.660Z,15.48
2019-06-01T00:12:05.142Z,15.42
2019-06-01T00:14:34.571Z,15.39
2019-06-01T00:17:03.947Z,15.34
2019-06-01T00:19:33.433Z,15.38
2019-06-01T00:22:02.932Z,15.30
2019-06-01T00:24:32.285Z,15.29
2019-06-01T00:27:01.715Z,15.26
2019-06-01T00:29:31.093Z,15.18
2019-06-01T00:32:00.480Z,15.13
2019-06-01T00:34:29.896Z,15.16
2019-06-01T00:36:59.287Z,15.14
2019-06-01T00:39:28.707Z,15.12
2019-06-01T00:41:58.074Z,15.11
2019-06-01T00:44:27.538Z,15.02
2019-06-01T00:46:56.958Z,14.96
2019-06-01T00:49:26.327Z,14.94
2019-06-01T00:51:55.723Z,14.81
2019-06-01T00:54:25.271Z,14.83
2019-06-01T00:56:54.835Z,14.84
2019-06-01T00:59:24.270Z,14.81
2019-06-01T01:01:54.261Z,14.81
2019-06-01T01:04:24.015Z,14.83
2019-06-01T01:06:54.693Z,14.84
2019-06-01T01:09:24.242Z,14.79
2019-06-01T01:11:53.718Z,14.75
2019-06-01T01:14:23.088Z,14.72
2019-06-01T01:16:54.020Z,14.72
2019-06-01T01:19:23.550Z,14.67
2019-06-01T01:21:54.054Z,14.71
2019-06-01T01:24:23.525Z,14.62
2019-06-01T01:26:52.915Z,14.67
2019-06-01T01:29:22.318Z,14.60
2019-06-01T01:31:51.747Z,14.60
2019-06-01T01:34:21.177Z,14.53
2019-06-01T01:36:52.566Z,14.52
2019-06-01T01:39:21.762Z,14.47
2019-06-01T01:41:52.150Z,14.42
2019-06-01T01:44:24.680Z,14.42
2019-06-01T01:46:54.881Z,14.38
2019-06-01T01:49:24.402Z,14.35
2019-06-01T01:51:53.806Z,14.35
2019-06-01T01:54:23.183Z,14.32
2019-06-01T01:56:54.046Z,14.28
2019-06-01T01:59:23.534Z,14.29
2019-06-01T02:01:54.540Z,14.25
2019-06-01T02:04:24.064Z,14.19
2019-06-01T02:06:53.956Z,14.16
2019-06-01T02:09:23.501Z,14.17
2019-06-01T02:11:53.425Z,14.15
2019-06-01T02:14:22.966Z,14.02
2019-06-01T02:16:52.374Z,14.00
2019-06-01T02:19:21.904Z,14.02
2019-06-01T02:21:52.349Z,13.99
2019-06-01T02:24:21.823Z,13.96
2019-06-01T02:26:51.257Z,13.98
2019-06-01T02:29:20.705Z,13.96
2019-06-01T02:31:50.087Z,13.90
2019-06-01T02:34:19.476Z,13.90
2019-06-01T02:36:48.881Z,13.84
2019-06-01T02:39:18.519Z,13.85
2019-06-01T02:41:47.933Z,13.85
2019-06-01T02:44:17.298Z,13.84
2019-06-01T02:46:46.798Z,13.83
2019-06-01T02:49:16.195Z,13.78
2019-06-01T02:51:45.559Z,13.80
2019-06-01T02:54:14.984Z,13.78
2019-06-01T02:56:44.334Z,13.80
2019-06-01T02:59:13.739Z,13.74
2019-06-01T03:01:56.669Z,13.74
2019-06-01T03:04:17.189Z,13.72
2019-06-01T03:06:48.120Z,13.59
2019-06-01T03:09:18.933Z,13.62
2019-06-01T03:11:50.353Z,13.60
2019-06-01T03:14:21.237Z,13.58
2019-06-01T03:16:53.014Z,13.51
2019-06-01T03:19:24.643Z,13.50
2019-06-01T03:21:57.631Z,13.51
2019-06-01T03:24:27.027Z,13.48
2019-06-01T03:26:56.654Z,13.46
2019-06-01T03:29:29.297Z,13.50
2019-06-01T03:32:20.685Z,13.49
2019-06-01T03:34:30.322Z,13.38
2019-06-01T03:37:01.006Z,13.36
2019-06-01T03:39:30.757Z,13.43
2019-06-01T03:42:01.025Z,13.43
2019-06-01T03:44:30.650Z,13.35
2019-06-01T03:47:01.400Z,13.37
2019-06-01T03:49:30.979Z,13.49
2019-06-01T03:52:00.650Z,13.50
2019-06-01T03:54:30.050Z,13.49
2019-06-01T03:57:00.645Z,13.50
2019-06-01T03:59:30.302Z,13.55
2019-06-01T04:02:00.775Z,13.58
2019-06-01T04:04:30.350Z,13.63
2019-06-01T04:06:59.723Z,13.66
2019-06-01T04:09:29.144Z,13.74
2019-06-01T04:11:58.546Z,13.81
2019-06-01T04:14:27.965Z,13.88
2019-06-01T04:16:57.369Z,13.94
2019-06-01T04:19:26.792Z,13.97
2019-06-01T04:21:56.195Z,14.00
2019-06-01T04:24:25.585Z,14.02
2019-06-01T04:26:55.224Z,14.06
2019-06-01T04:29:24.614Z,14.08
2019-06-01T04:31:54.139Z,14.14
2019-06-01T04:34:23.564Z,14.23
2019-06-01T04:36:52.969Z,14.24
2019-06-01T04:39:22.350Z,14.29
2019-06-01T04:41:51.758Z,14.28
2019-06-01T04:44:21.171Z,14.35
2019-06-01T04:46:50.616Z,14.40
2019-06-01T04:49:20.000Z,14.47
2019-06-01T04:51:49.489Z,14.55
2019-06-01T04:54:18.914Z,14.57
2019-06-01T04:56:48.544Z,14.66
2019-06-01T04:59:17.966Z,14.72
2019-06-01T05:01:47.521Z,14.77
2019-06-01T05:04:16.924Z,14.83
2019-06-01T05:06:46.320Z,14.95
2019-06-01T05:09:15.935Z,15.02
2019-06-01T05:11:45.302Z,15.08
2019-06-01T05:14:16.572Z,15.18
2019-06-01T05:16:45.835Z,15.24
2019-06-01T05:19:16.573Z,15.34
2019-06-01T05:21:46.342Z,15.38
2019-06-01T05:24:16.938Z,15.44
2019-06-01T05:26:46.690Z,15.53
2019-06-01T05:29:17.485Z,15.64
2019-06-01T05:31:47.935Z,15.67
2019-06-01T05:34:18.417Z,15.74
2019-06-01T05:36:48.101Z,15.85
2019-06-01T05:39:18.795Z,15.95
2019-06-01T05:41:48.275Z,16.06
2019-06-01T05:44:19.065Z,16.11
2019-06-01T05:46:48.810Z,16.25
2019-06-01T05:49:18.614Z,16.33
2019-06-01T05:51:48.079Z,16.42
2019-06-01T05:54:18.746Z,16.45
2019-06-01T05:56:49.788Z,16.65
2019-06-01T05:59:19.148Z,16.77
2019-06-01T06:01:48.524Z,16.87
2019-06-01T06:04:17.955Z,16.93
2019-06-01T06:06:47.335Z,17.09
2019-06-01T06:09:17.141Z,17.30
2019-06-01T06:11:46.690Z,17.30
2019-06-01T06:14:17.464Z,17.35
2019-06-01T06:16:47.012Z,17.50
2019-06-01T06:19:20.225Z,17.66
2019-06-01T06:21:47.567Z,17.74
2019-06-01T06:24:16.942Z,17.85
2019-06-01T06:26:46.337Z,17.87
2019-06-01T06:29:16.832Z,17.93
2019-06-01T06:31:46.328Z,18.15
2019-06-01T06:34:15.732Z,18.37
2019-06-01T06:36:45.126Z,18.53
2019-06-01T06:39:15.760Z,18.57
2019-06-01T06:41:45.208Z,18.60
2019-06-01T06:44:14.656Z,18.64
2019-06-01T06:46:44.051Z,18.82
2019-06-01T06:49:13.501Z,18.81
2019-06-01T06:51:42.960Z,18.93
2019-06-01T06:54:14.535Z,18.91
2019-06-01T06:56:43.579Z,19.03
2019-06-01T06:59:13.050Z,19.02
2019-06-01T07:01:42.406Z,19.11
2019-06-01T07:04:13.176Z,19.28
2019-06-01T07:06:42.916Z,19.40
2019-06-01T07:09:12.301Z,19.47
2019-06-01T07:11:41.697Z,19.48
2019-06-01T07:14:11.173Z,19.54
2019-06-01T07:16:40.632Z,19.71
2019-06-01T07:19:10.111Z,19.80
2019-06-01T07:21:39.485Z,19.83
2019-06-01T07:24:08.878Z,19.95
2019-06-01T07:26:38.249Z,20.09
2019-06-01T07:29:07.642Z,20.21
2019-06-01T07:31:37.001Z,20.26
2019-06-01T07:34:06.372Z,20.37
2019-06-01T07:36:35.827Z,20.41
2019-06-01T07:39:06.877Z,20.57
2019-06-01T07:41:36.498Z,20.66
2019-06-01T07:44:06.127Z,20.75
2019-06-01T07:46:35.605Z,20.82
2019-06-01T07:49:05.015Z,20.92
2019-06-01T07:51:34.420Z,21.11
2019-06-01T07:54:04.185Z,21.09
2019-06-01T07:56:33.590Z,21.24
2019-06-01T07:59:03.058Z,21.41
2019-06-01T08:01:32.958Z,21.46
2019-06-01T08:04:02.388Z,21.46
2019-06-01T08:06:32.732Z,21.54
2019-06-01T08:09:02.335Z,21.72
2019-06-01T08:11:33.473Z,21.77
2019-06-01T08:14:03.124Z,21.85
2019-06-01T08:16:32.859Z,21.90
2019-06-01T08:19:02.403Z,21.85
2019-06-01T08:21:32.407Z,22.03
2019-06-01T08:24:02.248Z,21.95
2019-06-01T08:26:32.674Z,22.17
2019-06-01T08:29:02.400Z,22.34
2019-06-01T08:31:33.206Z,22.39
2019-06-01T08:34:03.296Z,22.45
2019-06-01T08:36:33.943Z,22.53
2019-06-01T08:39:04.603Z,22.70
2019-06-01T08:41:34.058Z,22.64
2019-06-01T08:44:03.769Z,22.70
2019-06-01T08:46:33.965Z,22.65
2019-06-01T08:49:03.435Z,22.85
2019-06-01T08:51:34.111Z,22.96
2019-06-01T08:54:03.681Z,23.05
2019-06-01T08:56:34.454Z,22.81
2019-06-01T08:59:03.996Z,22.74
2019-06-01T09:01:34.598Z,22.75
2019-06-01T09:04:04.318Z,22.83
2019-06-01T09:06:35.240Z,22.90
2019-06-01T09:09:07.411Z,22.89
2019-06-01T09:11:36.906Z,23.07
2019-06-01T09:14:06.389Z,23.14
2019-06-01T09:16:36.080Z,23.16
2019-06-01T09:19:05.688Z,23.26
2019-06-01T09:21:35.715Z,23.37
2019-06-01T09:24:05.591Z,23.42
2019-06-01T09:26:36.057Z,23.57
2019-06-01T09:29:06.217Z,23.22
2019-06-01T09:31:36.690Z,23.28
2019-06-01T09:34:06.198Z,23.65
2019-06-01T09:36:36.757Z,23.69
2019-06-01T09:39:08.664Z,23.84
2019-06-01T09:41:38.029Z,23.92
2019-06-01T09:44:07.381Z,23.92
2019-06-01T09:46:37.460Z,24.01
2019-06-01T09:49:06.940Z,24.03
2019-06-01T09:51:37.653Z,24.04
2019-06-01T09:54:07.628Z,24.13
2019-06-01T09:56:38.170Z,24.39
2019-06-01T09:59:08.118Z,24.39
2019-06-01T10:01:38.728Z,24.71
2019-06-01T10:04:09.980Z,24.86
2019-06-01T10:06:39.553Z,24.89
2019-06-01T10:09:09.807Z,24.96
2019-06-01T10:11:39.274Z,24.89
2019-06-01T10:14:08.764Z,25.03
2019-06-01T10:16:38.903Z,25.27
2019-06-01T10:19:08.576Z,25.42
2019-06-01T10:21:38.110Z,25.58
2019-06-01T10:24:07.713Z,25.67
2019-06-01T10:26:37.615Z,25.86
2019-06-01T10:29:07.169Z,26.12
2019-06-01T10:31:41.148Z,25.29
2019-06-01T10:34:08.011Z,25.46
2019-06-01T10:36:38.052Z,25.25
2019-06-01T10:39:08.799Z,25.41
2019-06-01T10:41:39.500Z,25.58
2019-06-01T10:44:09.052Z,25.54
2019-06-01T10:46:40.036Z,25.43
2019-06-01T10:49:09.675Z,25.39
2019-06-01T10:51:40.387Z,25.40
2019-06-01T10:54:10.007Z,25.52
2019-06-01T10:56:40.528Z,25.60
2019-06-01T10:59:10.362Z,25.43
2019-06-01T11:01:40.845Z,25.79
2019-06-01T11:04:10.518Z,25.84
2019-06-01T11:06:45.151Z,26.13
2019-06-01T11:09:11.209Z,26.15
2019-06-01T11:11:41.155Z,25.53
2019-06-01T11:14:10.577Z,25.37
2019-06-01T11:16:41.758Z,25.69
2019-06-01T11:19:11.230Z,25.68
2019-06-01T11:21:41.737Z,25.54
2019-06-01T11:24:11.284Z,25.22
2019-06-01T11:26:41.845Z,25.17
2019-06-01T11:29:11.403Z,25.41
2019-06-01T11:31:42.122Z,25.07
2019-06-01T11:34:11.632Z,25.19
2019-06-01T11:37:01.240Z,25.00
2019-06-01T11:39:12.163Z,25.18
2019-06-01T11:41:42.622Z,25.53
2019-06-01T11:44:12.121Z,25.88
2019-06-01T11:46:41.488Z,26.38
2019-06-01T11:49:10.870Z,26.32
2019-06-01T11:51:41.475Z,26.37
2019-06-01T11:54:11.018Z,26.32
2019-06-01T11:56:41.361Z,27.00
2019-06-01T11:59:10.881Z,27.44
2019-06-01T12:01:41.695Z,27.42
2019-06-01T12:04:11.313Z,27.27
2019-06-01T12:06:41.697Z,28.13
2019-06-01T12:09:11.545Z,28.52
2019-06-01T12:11:42.174Z,28.97
2019-06-01T12:14:11.724Z,29.54
2019-06-01T12:16:42.808Z,29.72
2019-06-01T12:19:12.241Z,31.09
2019-06-01T12:21:42.925Z,31.07
2019-06-01T12:24:12.482Z,31.17
2019-06-01T12:26:41.997Z,31.15
2019-06-01T12:29:12.569Z,30.81
2019-06-01T12:31:41.966Z,31.10
2019-06-01T12:34:11.571Z,32.04
2019-06-01T12:36:42.579Z,32.59
2019-06-01T12:39:12.211Z,33.00
2019-06-01T12:41:41.859Z,33.45
2019-06-01T12:44:17.344Z,33.31
2019-06-01T12:46:47.067Z,33.17
2019-06-01T12:49:17.182Z,32.27
2019-06-01T12:51:47.098Z,31.02
2019-06-01T12:54:17.145Z,30.21
2019-06-01T12:56:47.751Z,29.98
2019-06-01T12:59:18.210Z,29.95
2019-06-01T13:01:47.563Z,31.04
2019-06-01T13:04:16.994Z,31.25
2019-06-01T13:06:50.310Z,31.27
2019-06-01T13:09:17.610Z,30.86
2019-06-01T13:11:47.386Z,30.61
2019-06-01T13:14:16.883Z,30.22
2019-06-01T13:16:50.635Z,29.62
2019-06-01T13:19:17.527Z,29.53
2019-06-01T13:21:47.486Z,29.22
2019-06-01T13:24:16.944Z,30.37
2019-06-01T13:26:47.699Z,31.34
2019-06-01T13:29:17.326Z,32.86
2019-06-01T13:31:46.701Z,33.89
2019-06-01T13:34:16.114Z,34.16
2019-06-01T13:36:46.576Z,32.75
2019-06-01T13:39:16.044Z,31.50
2019-06-01T13:41:45.411Z,30.22
2019-06-01T13:44:15.000Z,29.99
2019-06-01T13:46:45.288Z,29.27
2019-06-01T13:49:14.802Z,28.39
2019-06-01T13:51:45.899Z,27.48
2019-06-01T13:54:15.430Z,27.32
2019-06-01T13:56:44.836Z,27.14
2019-06-01T13:59:14.229Z,26.77
2019-06-01T14:01:45.035Z,26.84
2019-06-01T14:04:14.596Z,27.32
2019-06-01T14:06:45.149Z,27.53
2019-06-01T14:09:14.568Z,28.20
2019-06-01T14:11:45.218Z,28.22
2019-06-01T14:14:14.833Z,28.37
2019-06-01T14:16:45.476Z,28.29
2019-06-01T14:19:15.036Z,28.07
2019-06-01T14:21:45.741Z,27.94
2019-06-01T14:24:15.382Z,27.77
2019-06-01T14:26:46.034Z,27.47
2019-06-01T14:29:15.515Z,26.78
2019-06-01T14:31:46.444Z,26.31
2019-06-01T14:34:16.104Z,26.23
2019-06-01T14:36:46.457Z,26.54
2019-06-01T14:39:15.914Z,26.28
2019-06-01T14:41:46.595Z,26.38
2019-06-01T14:44:16.075Z,26.37
2019-06-01T14:46:56.163Z,26.39
2019-06-01T14:49:16.611Z,26.48
2019-06-01T14:51:47.384Z,26.63
2019-06-01T14:54:17.122Z,26.46
2019-06-01T14:56:47.574Z,26.43
2019-06-01T14:59:17.099Z,26.65
2019-06-01T15:01:46.533Z,26.84
2019-06-01T15:04:15.937Z,27.06
2019-06-01T15:06:45.314Z,27.27
2019-06-01T15:09:19.185Z,27.34
2019-06-01T15:11:45.873Z,27.86
2019-06-01T15:14:15.239Z,27.66
2019-06-01T15:16:44.627Z,27.92
2019-06-01T15:19:14.028Z,28.29
2019-06-01T15:21:43.469Z,27.97
2019-06-01T15:24:12.851Z,28.05
2019-06-01T15:26:42.299Z,28.06
2019-06-01T15:29:11.701Z,27.53
2019-06-01T15:31:41.086Z,27.74
2019-06-01T15:34:10.471Z,27.50
2019-06-01T15:36:39.876Z,27.45
2019-06-01T15:39:23.552Z,27.98
2019-06-01T15:41:40.869Z,28.05
2019-06-01T15:44:10.255Z,28.64
2019-06-01T15:46:39.661Z,29.14
2019-06-01T15:49:09.025Z,29.69
2019-06-01T15:51:38.432Z,29.58
2019-06-01T15:54:07.995Z,29.70
2019-06-01T15:56:37.565Z,29.97
2019-06-01T15:59:06.966Z,29.43
2019-06-01T16:01:36.362Z,29.61
2019-06-01T16:04:05.821Z,30.37
2019-06-01T16:06:35.211Z,29.94
2019-06-01T16:09:05.289Z,29.53
2019-06-01T16:11:34.652Z,29.52
2019-06-01T16:14:04.272Z,29.42
2019-06-01T16:16:33.650Z,29.14
2019-06-01T16:19:07.486Z,29.05
2019-06-01T16:21:34.358Z,29.04
2019-06-01T16:24:04.476Z,28.89
2019-06-01T16:26:33.895Z,29.35
2019-06-01T16:29:03.756Z,29.03
2019-06-01T16:31:34.447Z,29.11
2019-06-01T16:34:05.177Z,29.22
2019-06-01T16:36:34.840Z,29.57
2019-06-01T16:39:07.924Z,29.24
2019-06-01T16:41:36.997Z,28.58
2019-06-01T16:44:06.487Z,28.46
2019-06-01T16:46:35.930Z,28.30
2019-06-01T16:49:05.838Z,28.02
2019-06-01T16:51:52.958Z,27.90
2019-06-01T16:54:22.795Z,27.97
2019-06-01T16:56:52.350Z,28.10
2019-06-01T16:59:21.970Z,28.22
2019-06-01T17:01:51.355Z,28.32
2019-06-01T17:04:20.754Z,28.41
2019-06-01T17:06:50.123Z,28.26
2019-06-01T17:09:19.575Z,28.21
2019-06-01T17:11:49.046Z,28.11
2019-06-01T17:14:18.539Z,28.54
2019-06-01T17:16:48.139Z,28.80
2019-06-01T17:19:17.614Z,28.77
2019-06-01T17:21:47.063Z,29.45
2019-06-01T17:24:16.553Z,30.23
2019-06-01T17:26:46.018Z,30.69
2019-06-01T17:29:15.382Z,29.52
2019-06-01T17:31:54.065Z,29.44
2019-06-01T17:34:15.993Z,29.42
2019-06-01T17:36:45.396Z,28.94
2019-06-01T17:39:15.210Z,28.29
2019-06-01T17:41:44.835Z,27.83
2019-06-01T17:44:14.238Z,27.55
2019-06-01T17:46:53.454Z,27.63
2019-06-01T17:49:14.745Z,27.68
2019-06-01T17:51:44.105Z,27.41
2019-06-01T17:54:13.507Z,27.89
2019-06-01T17:56:42.894Z,28.61
2019-06-01T17:59:12.405Z,28.73
2019-06-01T18:01:42.675Z,29.06
2019-06-01T18:04:12.285Z,29.49
2019-06-01T18:06:41.703Z,29.92
2019-06-01T18:09:12.132Z,29.61
2019-06-01T18:11:41.741Z,29.47
2019-06-01T18:14:12.377Z,29.23
2019-06-01T18:16:41.932Z,28.87
2019-06-01T18:19:12.268Z,29.19
2019-06-01T18:21:42.115Z,29.14
2019-06-01T18:24:12.596Z,28.76
2019-06-01T18:26:42.396Z,28.25
2019-06-01T18:29:12.731Z,27.93
2019-06-01T18:31:42.163Z,27.60
2019-06-01T18:34:11.847Z,27.37
2019-06-01T18:36:41.315Z,26.88
2019-06-01T18:39:11.781Z,26.65
2019-06-01T18:41:41.281Z,26.39
2019-06-01T18:44:11.839Z,26.31
2019-06-01T18:46:41.426Z,26.20
2019-06-01T18:49:11.958Z,25.95
2019-06-01T18:51:41.342Z,25.83
2019-06-01T18:54:10.957Z,25.65
2019-06-01T18:56:40.422Z,25.44
2019-06-01T18:59:10.263Z,25.43
2019-06-01T19:01:39.864Z,25.17
2019-06-01T19:04:09.710Z,25.10
2019-06-01T19:06:39.301Z,25.02
2019-06-01T19:09:09.525Z,24.93
2019-06-01T19:11:39.125Z,24.68
2019-06-01T19:14:09.721Z,24.47
2019-06-01T19:16:39.219Z,24.35
2019-06-01T19:19:08.612Z,24.25
2019-06-01T19:21:38.071Z,24.22
2019-06-01T19:24:08.492Z,24.07
2019-06-01T19:26:37.985Z,23.93
2019-06-01T19:29:08.718Z,23.78
2019-06-01T19:31:38.229Z,23.65
2019-06-01T19:34:08.791Z,23.50
2019-06-01T19:36:40.036Z,23.36
2019-06-01T19:39:09.447Z,23.30
2019-06-01T19:41:44.809Z,23.22
2019-06-01T19:44:10.015Z,23.15
2019-06-01T19:46:39.512Z,23.06
2019-06-01T19:49:10.681Z,22.92
2019-06-01T19:51:40.044Z,22.78
2019-06-01T19:54:10.635Z,22.71
2019-06-01T19:56:40.283Z,22.59
2019-06-01T19:59:09.970Z,22.51
2019-06-01T20:01:39.466Z,22.43
2019-06-01T20:04:08.867Z,22.36
2019-06-01T20:06:38.244Z,22.30
2019-06-01T20:09:08.267Z,22.22
2019-06-01T20:11:37.664Z,22.14
2019-06-01T20:14:07.163Z,22.07
2019-06-01T20:16:36.543Z,21.95
2019-06-01T20:19:05.973Z,21.87
2019-06-01T20:21:35.380Z,21.81
2019-06-01T20:24:05.037Z,21.73
2019-06-01T20:26:42.028Z,21.69
2019-06-01T20:29:06.003Z,21.62
2019-06-01T20:31:35.430Z,21.57
2019-06-01T20:34:04.947Z,21.53
2019-06-01T20:36:34.349Z,21.46
2019-06-01T20:39:05.177Z,21.42
2019-06-01T20:41:34.897Z,21.37
2019-06-01T20:44:04.498Z,21.34
2019-06-01T20:46:33.909Z,21.28
2019-06-01T20:49:03.354Z,21.23
2019-06-01T20:51:32.864Z,21.12
2019-06-01T20:54:02.253Z,21.45
2019-06-01T20:56:31.634Z,21.51
2019-06-01T20:59:01.052Z,21.34
2019-06-01T21:01:30.440Z,21.22
2019-06-01T21:03:59.826Z,21.27
2019-06-01T21:06:29.241Z,21.14
2019-06-01T21:08:58.625Z,21.09
2019-06-01T21:11:28.033Z,21.04
2019-06-01T21:13:57.410Z,20.94
2019-06-01T21:16:26.811Z,20.92
2019-06-01T21:18:56.400Z,20.87
2019-06-01T21:21:25.930Z,20.82
2019-06-01T21:23:55.348Z,20.77
2019-06-01T21:26:24.911Z,20.67
2019-06-01T21:28:54.449Z,20.60
2019-06-01T21:31:23.822Z,20.51
2019-06-01T21:33:53.615Z,20.43
2019-06-01T21:36:23.587Z,20.30
2019-06-01T21:38:53.226Z,20.24
2019-06-01T21:41:23.743Z,20.21
2019-06-01T21:43:53.203Z,20.20
2019-06-01T21:46:23.691Z,20.17
2019-06-01T21:48:53.367Z,20.17
2019-06-01T21:51:23.995Z,20.13
2019-06-01T21:53:53.516Z,20.10
2019-06-01T21:56:24.211Z,19.94
2019-06-01T21:58:54.253Z,19.90
2019-06-01T22:01:24.883Z,19.84
2019-06-01T22:03:54.412Z,19.84
2019-06-01T22:06:25.553Z,19.83
2019-06-01T22:08:55.080Z,19.79
2019-06-01T22:11:25.588Z,19.71
2019-06-01T22:13:55.048Z,19.59
2019-06-01T22:16:25.728Z,19.59
2019-06-01T22:18:55.409Z,19.57
2019-06-01T22:21:25.880Z,19.52
2019-06-01T22:23:55.311Z,19.49
2019-06-01T22:26:24.814Z,19.40
2019-06-01T22:28:54.217Z,19.28
2019-06-01T22:31:24.560Z,19.26
2019-06-01T22:33:54.112Z,19.21
2019-06-01T22:36:23.520Z,19.15
2019-06-01T22:38:53.021Z,19.11
2019-06-01T22:41:22.457Z,18.97
2019-06-01T22:43:51.860Z,18.93
2019-06-01T22:46:22.348Z,18.86
2019-06-01T22:48:51.823Z,18.86
2019-06-01T22:51:21.248Z,18.81
2019-06-01T22:53:50.664Z,18.84
2019-06-01T22:56:21.194Z,18.78
2019-06-01T22:58:50.762Z,18.75
2019-06-01T23:01:21.013Z,18.72
2019-06-01T23:03:50.556Z,18.68
2019-06-01T23:06:20.922Z,18.59
2019-06-01T23:08:50.418Z,18.53
2019-06-01T23:11:21.217Z,18.48
2019-06-01T23:13:53.787Z,18.48
2019-06-01T23:16:21.989Z,18.49
2019-06-01T23:18:51.378Z,18.44
2019-06-01T23:21:21.813Z,18.43
2019-06-01T23:23:51.339Z,18.39
2019-06-01T23:26:22.002Z,18.34
2019-06-01T23:28:51.532Z,18.31
2019-06-01T23:31:22.241Z,18.27
2019-06-01T23:33:51.668Z,18.17
2019-06-01T23:36:22.497Z,18.12
2019-06-01T23:38:51.943Z,18.06
2019-06-01T23:41:22.439Z,18.04
2019-06-01T23:43:52.031Z,17.97
2019-06-01T23:46:21.399Z,17.97
2019-06-01T23:48:51.985Z,17.96
2019-06-01T23:51:21.368Z,17.86
2019-06-01T23:53:50.763Z,17.77
2019-06-01T23:56:20.141Z,17.73
2019-06-01T23:58:49.669Z,17.70
